FABM

Bethlehem Airport

Bethlehem, South Africa
METAR FABM 170634Z 35002KT CAVOK 24/07 Q1025
Observed Flight Rules
Nov-17 @ 06:34 UTC (15 hours ago) Visual Flight Rules
Wind Visibility Clouds
350° at 2 knots 10,000+ meters
  • Clear skies
Temperatures Readings
Current 24°C / 75°F
Dewpoint 7°C / 45°F
Humidity 34%
Altimeter 30.27" Hg
Pressure 1025 hPa
Elevation 1682
METAR FABM 170634Z 35002KT CAVOK 24/07 Q1025
Observed Flight Rules
Nov-17 @ 06:34 UTC
(15 hours ago)
VFR
Wind Visibility
350° at 2 knots 10,000+ meters
Clouds
  • Clear skies
Temperature Dewpoint
24°C / 75°F 7°C / 45°F
Humidity Altimeter Pressure
34% 30.27" Hg 1025 hPa